sensor_id;sensor_type;location;lat;lon;timestamp;temperature;humidity
19224;DHT22;9746;47.180;9.776;2022-08-21T05:35:38;13.80;99.90
19224;DHT22;9746;47.180;9.776;2022-08-21T05:38:06;13.80;99.90
19224;DHT22;9746;47.180;9.776;2022-08-21T05:40:34;13.80;99.90
19224;DHT22;9746;47.180;9.776;2022-08-21T05:43:01;13.90;99.90
19224;DHT22;9746;47.180;9.776;2022-08-21T05:45:32;13.90;99.90
19224;DHT22;9746;47.180;9.776;2022-08-21T05:48:06;14.00;99.90
19224;DHT22;9746;47.180;9.776;2022-08-21T05:50:36;13.90;99.90
19224;DHT22;9746;47.180;9.776;2022-08-21T05:53:04;13.90;99.90
19224;DHT22;9746;47.180;9.776;2022-08-21T05:55:31;13.90;99.90
19224;DHT22;9746;47.180;9.776;2022-08-21T05:57:59;14.00;99.90
19224;DHT22;9746;47.180;9.776;2022-08-21T06:00:26;14.00;99.90
19224;DHT22;9746;47.180;9.776;2022-08-21T06:02:54;14.00;99.90
19224;DHT22;9746;47.180;9.776;2022-08-21T06:05:21;14.00;99.90
19224;DHT22;9746;47.180;9.776;2022-08-21T06:07:50;14.10;99.90
19224;DHT22;9746;47.180;9.776;2022-08-21T06:10:18;14.10;99.90
19224;DHT22;9746;47.180;9.776;2022-08-21T06:12:45;14.10;99.90
19224;DHT22;9746;47.180;9.776;2022-08-21T06:15:13;14.20;99.90
19224;DHT22;9746;47.180;9.776;2022-08-21T06:17:40;14.20;99.90
19224;DHT22;9746;47.180;9.776;2022-08-21T06:20:09;14.30;99.90
19224;DHT22;9746;47.180;9.776;2022-08-21T06:22:37;14.40;99.90
19224;DHT22;9746;47.180;9.776;2022-08-21T06:25:06;14.40;99.90
19224;DHT22;9746;47.180;9.776;2022-08-21T06:27:35;14.60;99.90
19224;DHT22;9746;47.180;9.776;2022-08-21T06:30:02;14.70;99.90
19224;DHT22;9746;47.180;9.776;2022-08-21T06:32:30;14.70;99.90
19224;DHT22;9746;47.180;9.776;2022-08-21T06:34:57;14.80;99.90
19224;DHT22;9746;47.180;9.776;2022-08-21T06:37:25;14.80;99.90
19224;DHT22;9746;47.180;9.776;2022-08-21T06:39:53;14.80;99.90
19224;DHT22;9746;47.180;9.776;2022-08-21T06:42:21;14.90;99.90
19224;DHT22;9746;47.180;9.776;2022-08-21T06:44:49;14.90;99.90
19224;DHT22;9746;47.180;9.776;2022-08-21T06:47:16;15.10;99.90
19224;DHT22;9746;47.180;9.776;2022-08-21T06:49:44;15.20;99.90
19224;DHT22;9746;47.180;9.776;2022-08-21T06:52:12;15.40;99.90
19224;DHT22;9746;47.180;9.776;2022-08-21T06:54:41;15.60;99.90
19224;DHT22;9746;47.180;9.776;2022-08-21T06:57:08;15.80;99.90
19224;DHT22;9746;47.180;9.776;2022-08-21T06:59:37;16.00;99.90
19224;DHT22;9746;47.180;9.776;2022-08-21T07:02:04;16.20;99.90
19224;DHT22;9746;47.180;9.776;2022-08-21T07:04:32;16.40;99.90
19224;DHT22;9746;47.180;9.776;2022-08-21T07:06:59;16.60;99.90
19224;DHT22;9746;47.180;9.776;2022-08-21T07:09:27;16.80;99.90
19224;DHT22;9746;47.180;9.776;2022-08-21T07:11:56;16.90;99.90
19224;DHT22;9746;47.180;9.776;2022-08-21T07:14:24;17.10;99.90
19224;DHT22;9746;47.180;9.776;2022-08-21T07:16:53;17.30;99.90
19224;DHT22;9746;47.180;9.776;2022-08-21T07:19:21;17.50;99.90
19224;DHT22;9746;47.180;9.776;2022-08-21T07:21:48;17.70;99.90
19224;DHT22;9746;47.180;9.776;2022-08-21T07:24:15;17.90;99.90
19224;DHT22;9746;47.180;9.776;2022-08-21T07:26:43;18.00;99.90
19224;DHT22;9746;47.180;9.776;2022-08-21T07:29:11;18.20;99.90
19224;DHT22;9746;47.180;9.776;2022-08-21T07:31:38;18.30;99.90
19224;DHT22;9746;47.180;9.776;2022-08-21T07:34:07;18.50;99.90
19224;DHT22;9746;47.180;9.776;2022-08-21T07:36:35;18.60;99.90
19224;DHT22;9746;47.180;9.776;2022-08-21T07:39:02;18.70;99.90
19224;DHT22;9746;47.180;9.776;2022-08-21T07:41:30;18.90;99.90
19224;DHT22;9746;47.180;9.776;2022-08-21T07:43:58;19.00;99.90
19224;DHT22;9746;47.180;9.776;2022-08-21T07:46:26;19.10;99.90
19224;DHT22;9746;47.180;9.776;2022-08-21T07:48:54;19.30;99.90
19224;DHT22;9746;47.180;9.776;2022-08-21T07:51:26;19.40;99.90
19224;DHT22;9746;47.180;9.776;2022-08-21T07:53:56;19.50;99.90
19224;DHT22;9746;47.180;9.776;2022-08-21T07:56:26;19.60;99.90
19224;DHT22;9746;47.180;9.776;2022-08-21T07:58:54;19.80;99.90
19224;DHT22;9746;47.180;9.776;2022-08-21T08:01:24;19.90;99.90
19224;DHT22;9746;47.180;9.776;2022-08-21T08:03:51;20.10;99.90
19224;DHT22;9746;47.180;9.776;2022-08-21T08:06:19;20.20;99.90
19224;DHT22;9746;47.180;9.776;2022-08-21T08:08:48;20.20;99.90
19224;DHT22;9746;47.180;9.776;2022-08-21T08:11:16;20.30;99.90
19224;DHT22;9746;47.180;9.776;2022-08-21T08:13:46;20.30;99.90
19224;DHT22;9746;47.180;9.776;2022-08-21T08:16:13;20.40;99.90
19224;DHT22;9746;47.180;9.776;2022-08-21T08:18:41;20.60;99.90
19224;DHT22;9746;47.180;9.776;2022-08-21T08:21:11;20.70;99.90
19224;DHT22;9746;47.180;9.776;2022-08-21T08:23:44;20.70;99.90
19224;DHT22;9746;47.180;9.776;2022-08-21T08:26:13;20.80;99.90
19224;DHT22;9746;47.180;9.776;2022-08-21T08:28:41;20.90;99.90
19224;DHT22;9746;47.180;9.776;2022-08-21T08:31:09;21.00;99.90
19224;DHT22;9746;47.180;9.776;2022-08-21T08:33:36;21.10;99.90
19224;DHT22;9746;47.180;9.776;2022-08-21T08:36:04;21.20;99.90
19224;DHT22;9746;47.180;9.776;2022-08-21T08:38:32;21.30;99.90
19224;DHT22;9746;47.180;9.776;2022-08-21T08:41:04;21.30;99.90
19224;DHT22;9746;47.180;9.776;2022-08-21T08:43:35;21.40;99.90
19224;DHT22;9746;47.180;9.776;2022-08-21T08:46:06;21.50;99.90
19224;DHT22;9746;47.180;9.776;2022-08-21T08:48:46;21.60;99.90
19224;DHT22;9746;47.180;9.776;2022-08-21T08:51:18;21.70;99.90
19224;DHT22;9746;47.180;9.776;2022-08-21T08:53:51;21.90;99.90
19224;DHT22;9746;47.180;9.776;2022-08-21T08:56:25;22.00;99.90
19224;DHT22;9746;47.180;9.776;2022-08-21T08:58:59;22.20;99.90
19224;DHT22;9746;47.180;9.776;2022-08-21T09:01:29;22.40;99.90
19224;DHT22;9746;47.180;9.776;2022-08-21T09:03:57;22.50;99.90
19224;DHT22;9746;47.180;9.776;2022-08-21T09:06:42;22.60;99.90
19224;DHT22;9746;47.180;9.776;2022-08-21T09:09:25;22.70;99.90
19224;DHT22;9746;47.180;9.776;2022-08-21T09:12:02;22.70;99.90
19224;DHT22;9746;47.180;9.776;2022-08-21T09:14:47;22.80;99.90
19224;DHT22;9746;47.180;9.776;2022-08-21T09:17:44;22.90;99.90
19224;DHT22;9746;47.180;9.776;2022-08-21T09:20:22;23.00;99.90
19224;DHT22;9746;47.180;9.776;2022-08-21T09:23:00;23.20;99.90
19224;DHT22;9746;47.180;9.776;2022-08-21T09:25:34;23.50;99.90
19224;DHT22;9746;47.180;9.776;2022-08-21T09:28:07;23.80;99.90
19224;DHT22;9746;47.180;9.776;2022-08-21T09:30:40;24.10;99.90
19224;DHT22;9746;47.180;9.776;2022-08-21T09:33:11;24.20;99.90
19224;DHT22;9746;47.180;9.776;2022-08-21T09:35:50;24.40;99.90
19224;DHT22;9746;47.180;9.776;2022-08-21T09:38:26;24.60;99.90
19224;DHT22;9746;47.180;9.776;2022-08-21T09:40:59;24.80;99.90
19224;DHT22;9746;47.180;9.776;2022-08-21T09:43:27;25.00;99.90
19224;DHT22;9746;47.180;9.776;2022-08-21T09:46:08;25.20;99.90
19224;DHT22;9746;47.180;9.776;2022-08-21T09:48:42;25.20;99.90
19224;DHT22;9746;47.180;9.776;2022-08-21T09:51:12;25.30;99.90
19224;DHT22;9746;47.180;9.776;2022-08-21T09:53:46;25.50;99.90
19224;DHT22;9746;47.180;9.776;2022-08-21T09:56:19;25.80;99.90
19224;DHT22;9746;47.180;9.776;2022-08-21T09:59:19;26.00;99.90
19224;DHT22;9746;47.180;9.776;2022-08-21T10:01:51;26.30;99.90
19224;DHT22;9746;47.180;9.776;2022-08-21T10:04:26;26.50;99.90
19224;DHT22;9746;47.180;9.776;2022-08-21T10:06:54;26.70;99.90
19224;DHT22;9746;47.180;9.776;2022-08-21T10:09:22;27.00;99.90
19224;DHT22;9746;47.180;9.776;2022-08-21T10:11:58;27.10;99.90
19224;DHT22;9746;47.180;9.776;2022-08-21T10:14:38;27.30;99.90
19224;DHT22;9746;47.180;9.776;2022-08-21T10:17:17;27.60;99.90
19224;DHT22;9746;47.180;9.776;2022-08-21T10:20:02;27.80;99.90
19224;DHT22;9746;47.180;9.776;2022-08-21T10:22:37;28.00;99.90
19224;DHT22;9746;47.180;9.776;2022-08-21T10:25:13;28.30;99.90
19224;DHT22;9746;47.180;9.776;2022-08-21T10:27:51;28.40;99.90
19224;DHT22;9746;47.180;9.776;2022-08-21T10:30:32;28.60;99.90
19224;DHT22;9746;47.180;9.776;2022-08-21T10:33:13;28.80;99.90
19224;DHT22;9746;47.180;9.776;2022-08-21T10:35:51;28.90;99.90
19224;DHT22;9746;47.180;9.776;2022-08-21T10:38:36;29.20;99.90
19224;DHT22;9746;47.180;9.776;2022-08-21T10:41:15;29.40;99.90
19224;DHT22;9746;47.180;9.776;2022-08-21T10:43:52;29.40;99.90
19224;DHT22;9746;47.180;9.776;2022-08-21T10:46:35;29.60;99.90
19224;DHT22;9746;47.180;9.776;2022-08-21T10:49:14;29.80;99.90
19224;DHT22;9746;47.180;9.776;2022-08-21T10:51:49;29.80;99.90
19224;DHT22;9746;47.180;9.776;2022-08-21T10:54:29;30.20;99.90
19224;DHT22;9746;47.180;9.776;2022-08-21T10:59:52;30.70;99.90
19224;DHT22;9746;47.180;9.776;2022-08-21T11:02:26;30.90;99.90
19224;DHT22;9746;47.180;9.776;2022-08-21T11:05:01;30.90;99.90
19224;DHT22;9746;47.180;9.776;2022-08-21T11:07:32;31.10;99.90
19224;DHT22;9746;47.180;9.776;2022-08-21T11:10:08;31.40;99.90
19224;DHT22;9746;47.180;9.776;2022-08-21T11:12:42;31.70;99.90
19224;DHT22;9746;47.180;9.776;2022-08-21T11:15:28;31.80;99.90
19224;DHT22;9746;47.180;9.776;2022-08-21T11:18:15;32.00;99.90
19224;DHT22;9746;47.180;9.776;2022-08-21T11:20:51;32.20;99.90
19224;DHT22;9746;47.180;9.776;2022-08-21T11:23:28;32.50;99.90
19224;DHT22;9746;47.180;9.776;2022-08-21T11:26:02;32.70;99.90
19224;DHT22;9746;47.180;9.776;2022-08-21T11:28:34;32.90;99.90
19224;DHT22;9746;47.180;9.776;2022-08-21T11:31:16;33.00;99.90
19224;DHT22;9746;47.180;9.776;2022-08-21T11:33:54;33.30;99.90
19224;DHT22;9746;47.180;9.776;2022-08-21T11:36:31;33.60;99.90
19224;DHT22;9746;47.180;9.776;2022-08-21T11:39:19;33.90;99.90
19224;DHT22;9746;47.180;9.776;2022-08-21T11:41:57;34.30;99.90
19224;DHT22;9746;47.180;9.776;2022-08-21T11:44:33;34.50;99.90
19224;DHT22;9746;47.180;9.776;2022-08-21T11:47:10;34.60;99.90
19224;DHT22;9746;47.180;9.776;2022-08-21T11:49:49;34.80;99.90
19224;DHT22;9746;47.180;9.776;2022-08-21T11:52:26;34.90;99.90
19224;DHT22;9746;47.180;9.776;2022-08-21T11:55:01;34.90;99.90
19224;DHT22;9746;47.180;9.776;2022-08-21T11:57:34;34.60;99.90
19224;DHT22;9746;47.180;9.776;2022-08-21T12:00:06;34.70;99.90
19224;DHT22;9746;47.180;9.776;2022-08-21T12:02:38;34.60;99.90
19224;DHT22;9746;47.180;9.776;2022-08-21T12:05:09;35.00;99.90
19224;DHT22;9746;47.180;9.776;2022-08-21T12:07:42;35.40;99.90
19224;DHT22;9746;47.180;9.776;2022-08-21T12:10:16;34.90;99.90
19224;DHT22;9746;47.180;9.776;2022-08-21T12:12:47;34.20;99.90
19224;DHT22;9746;47.180;9.776;2022-08-21T12:15:25;34.10;99.90
19224;DHT22;9746;47.180;9.776;2022-08-21T12:17:59;33.70;99.90
19224;DHT22;9746;47.180;9.776;2022-08-21T12:20:38;34.20;99.90
19224;DHT22;9746;47.180;9.776;2022-08-21T12:23:17;34.40;99.90
19224;DHT22;9746;47.180;9.776;2022-08-21T12:25:48;34.80;99.90
19224;DHT22;9746;47.180;9.776;2022-08-21T12:28:27;34.90;99.90
19224;DHT22;9746;47.180;9.776;2022-08-21T12:30:57;35.40;99.90
19224;DHT22;9746;47.180;9.776;2022-08-21T12:33:28;35.80;99.90
19224;DHT22;9746;47.180;9.776;2022-08-21T12:36:06;36.50;99.90
19224;DHT22;9746;47.180;9.776;2022-08-21T12:38:45;36.90;99.90
19224;DHT22;9746;47.180;9.776;2022-08-21T12:41:19;36.80;99.90
19224;DHT22;9746;47.180;9.776;2022-08-21T12:43:53;36.80;99.20
19224;DHT22;9746;47.180;9.776;2022-08-21T12:46:30;36.70;98.90
19224;DHT22;9746;47.180;9.776;2022-08-21T12:49:02;36.40;97.50
19224;DHT22;9746;47.180;9.776;2022-08-21T12:51:34;36.10;98.10
19224;DHT22;9746;47.180;9.776;2022-08-21T12:54:05;36.60;98.20
19224;DHT22;9746;47.180;9.776;2022-08-21T12:56:34;36.80;97.40
19224;DHT22;9746;47.180;9.776;2022-08-21T12:59:04;37.40;96.10
19224;DHT22;9746;47.180;9.776;2022-08-21T13:01:33;37.20;95.60
19224;DHT22;9746;47.180;9.776;2022-08-21T13:04:07;36.80;95.60
19224;DHT22;9746;47.180;9.776;2022-08-21T13:06:39;36.60;97.80
19224;DHT22;9746;47.180;9.776;2022-08-21T13:09:11;36.60;95.10
19224;DHT22;9746;47.180;9.776;2022-08-21T13:11:40;36.20;95.20
19224;DHT22;9746;47.180;9.776;2022-08-21T13:14:14;36.90;95.10
19224;DHT22;9746;47.180;9.776;2022-08-21T13:16:45;37.30;96.10
19224;DHT22;9746;47.180;9.776;2022-08-21T13:19:17;38.10;93.30
19224;DHT22;9746;47.180;9.776;2022-08-21T13:21:46;38.40;92.20
19224;DHT22;9746;47.180;9.776;2022-08-21T13:24:17;38.70;91.80
19224;DHT22;9746;47.180;9.776;2022-08-21T13:26:47;39.60;90.40
19224;DHT22;9746;47.180;9.776;2022-08-21T13:29:17;40.00;87.40
19224;DHT22;9746;47.180;9.776;2022-08-21T13:31:48;39.90;85.60
19224;DHT22;9746;47.180;9.776;2022-08-21T13:34:19;40.30;87.00
19224;DHT22;9746;47.180;9.776;2022-08-21T13:36:48;40.80;82.30
19224;DHT22;9746;47.180;9.776;2022-08-21T13:39:20;40.20;81.20
19224;DHT22;9746;47.180;9.776;2022-08-21T13:41:52;40.40;83.30
19224;DHT22;9746;47.180;9.776;2022-08-21T13:44:23;40.80;80.70
19224;DHT22;9746;47.180;9.776;2022-08-21T13:46:54;40.10;78.90
19224;DHT22;9746;47.180;9.776;2022-08-21T13:49:28;39.00;79.90
19224;DHT22;9746;47.180;9.776;2022-08-21T13:51:56;38.40;80.60
19224;DHT22;9746;47.180;9.776;2022-08-21T13:54:29;38.00;80.50
19224;DHT22;9746;47.180;9.776;2022-08-21T13:56:56;37.90;82.20
19224;DHT22;9746;47.180;9.776;2022-08-21T13:59:26;38.50;81.70
19224;DHT22;9746;47.180;9.776;2022-08-21T14:01:56;38.90;81.80
19224;DHT22;9746;47.180;9.776;2022-08-21T14:04:31;39.70;80.20
19224;DHT22;9746;47.180;9.776;2022-08-21T14:07:00;40.90;78.90
19224;DHT22;9746;47.180;9.776;2022-08-21T14:09:32;41.60;79.30
19224;DHT22;9746;47.180;9.776;2022-08-21T14:12:02;42.50;78.70
19224;DHT22;9746;47.180;9.776;2022-08-21T14:14:39;42.90;76.40
19224;DHT22;9746;47.180;9.776;2022-08-21T14:17:10;41.80;74.60
19224;DHT22;9746;47.180;9.776;2022-08-21T14:19:42;41.70;75.10
19224;DHT22;9746;47.180;9.776;2022-08-21T14:22:28;41.10;75.20
19224;DHT22;9746;47.180;9.776;2022-08-21T14:25:02;41.40;76.20
19224;DHT22;9746;47.180;9.776;2022-08-21T14:27:33;39.40;76.30
19224;DHT22;9746;47.180;9.776;2022-08-21T14:30:04;38.80;77.80
19224;DHT22;9746;47.180;9.776;2022-08-21T14:32:38;38.30;78.00
19224;DHT22;9746;47.180;9.776;2022-08-21T14:35:07;37.90;79.90
19224;DHT22;9746;47.180;9.776;2022-08-21T14:37:36;38.10;79.70
19224;DHT22;9746;47.180;9.776;2022-08-21T14:40:06;39.00;81.40
19224;DHT22;9746;47.180;9.776;2022-08-21T14:42:34;39.00;79.30
19224;DHT22;9746;47.180;9.776;2022-08-21T14:45:10;38.90;79.40
19224;DHT22;9746;47.180;9.776;2022-08-21T14:47:39;39.20;79.80
19224;DHT22;9746;47.180;9.776;2022-08-21T14:50:07;38.50;80.50
19224;DHT22;9746;47.180;9.776;2022-08-21T14:52:35;38.30;79.80
19224;DHT22;9746;47.180;9.776;2022-08-21T14:55:06;38.10;80.10
19224;DHT22;9746;47.180;9.776;2022-08-21T14:57:36;38.10;80.00
19224;DHT22;9746;47.180;9.776;2022-08-21T15:00:06;37.40;81.50
19224;DHT22;9746;47.180;9.776;2022-08-21T15:02:34;36.70;81.90
19224;DHT22;9746;47.180;9.776;2022-08-21T15:05:01;36.70;81.70
19224;DHT22;9746;47.180;9.776;2022-08-21T15:07:29;36.60;81.80
19224;DHT22;9746;47.180;9.776;2022-08-21T15:09:57;36.80;81.70
19224;DHT22;9746;47.180;9.776;2022-08-21T15:12:26;36.00;81.60
19224;DHT22;9746;47.180;9.776;2022-08-21T15:14:54;35.70;82.80
19224;DHT22;9746;47.180;9.776;2022-08-21T15:17:21;34.30;84.60
19224;DHT22;9746;47.180;9.776;2022-08-21T15:19:49;34.70;85.90
19224;DHT22;9746;47.180;9.776;2022-08-21T15:22:16;36.30;83.80
19224;DHT22;9746;47.180;9.776;2022-08-21T15:24:44;37.00;83.70
19224;DHT22;9746;47.180;9.776;2022-08-21T15:27:12;36.90;79.40
19224;DHT22;9746;47.180;9.776;2022-08-21T15:29:43;36.10;79.60
19224;DHT22;9746;47.180;9.776;2022-08-21T15:32:20;36.30;80.30
19224;DHT22;9746;47.180;9.776;2022-08-21T15:34:49;36.40;81.30
19224;DHT22;9746;47.180;9.776;2022-08-21T15:37:17;36.00;78.10
19224;DHT22;9746;47.180;9.776;2022-08-21T15:39:44;36.00;79.00
19224;DHT22;9746;47.180;9.776;2022-08-21T15:42:12;35.60;79.20
19224;DHT22;9746;47.180;9.776;2022-08-21T15:44:41;35.10;78.80
19224;DHT22;9746;47.180;9.776;2022-08-21T15:47:13;35.50;79.50
19224;DHT22;9746;47.180;9.776;2022-08-21T15:49:41;35.90;77.20
19224;DHT22;9746;47.180;9.776;2022-08-21T15:52:11;35.40;77.20
19224;DHT22;9746;47.180;9.776;2022-08-21T15:54:38;35.30;77.70
19224;DHT22;9746;47.180;9.776;2022-08-21T15:57:06;34.70;77.80
19224;DHT22;9746;47.180;9.776;2022-08-21T15:59:41;34.90;78.10
19224;DHT22;9746;47.180;9.776;2022-08-21T16:02:14;34.30;78.50
19224;DHT22;9746;47.180;9.776;2022-08-21T16:04:42;33.90;78.50
19224;DHT22;9746;47.180;9.776;2022-08-21T16:07:10;34.10;78.70
19224;DHT22;9746;47.180;9.776;2022-08-21T16:09:38;34.70;78.10
19224;DHT22;9746;47.180;9.776;2022-08-21T16:12:06;34.70;77.60
19224;DHT22;9746;47.180;9.776;2022-08-21T16:14:35;34.30;77.00
19224;DHT22;9746;47.180;9.776;2022-08-21T16:17:04;33.10;78.10
19224;DHT22;9746;47.180;9.776;2022-08-21T16:19:34;32.10;80.50
19224;DHT22;9746;47.180;9.776;2022-08-21T16:22:03;31.50;81.30
19224;DHT22;9746;47.180;9.776;2022-08-21T16:24:31;30.70;82.30
19224;DHT22;9746;47.180;9.776;2022-08-21T16:26:58;29.90;84.50
19224;DHT22;9746;47.180;9.776;2022-08-21T16:29:27;29.20;86.00
19224;DHT22;9746;47.180;9.776;2022-08-21T16:31:55;28.90;86.50
19224;DHT22;9746;47.180;9.776;2022-08-21T16:34:23;28.30;87.10
19224;DHT22;9746;47.180;9.776;2022-08-21T16:36:54;28.00;88.30
19224;DHT22;9746;47.180;9.776;2022-08-21T16:39:21;27.70;88.90
19224;DHT22;9746;47.180;9.776;2022-08-21T16:41:49;27.40;89.70
19224;DHT22;9746;47.180;9.776;2022-08-21T16:44:17;27.20;90.10
19224;DHT22;9746;47.180;9.776;2022-08-21T16:46:45;27.10;90.70
19224;DHT22;9746;47.180;9.776;2022-08-21T16:49:13;26.80;90.60
19224;DHT22;9746;47.180;9.776;2022-08-21T16:51:40;26.50;90.90
19224;DHT22;9746;47.180;9.776;2022-08-21T16:54:09;26.40;91.10
19224;DHT22;9746;47.180;9.776;2022-08-21T16:56:37;26.30;91.20
19224;DHT22;9746;47.180;9.776;2022-08-21T16:59:06;26.20;91.70
19224;DHT22;9746;47.180;9.776;2022-08-21T17:01:34;26.10;91.60
19224;DHT22;9746;47.180;9.776;2022-08-21T17:04:03;26.00;91.80
19224;DHT22;9746;47.180;9.776;2022-08-21T17:06:30;25.90;92.10
19224;DHT22;9746;47.180;9.776;2022-08-21T17:08:59;25.80;92.60
19224;DHT22;9746;47.180;9.776;2022-08-21T17:11:31;25.70;92.70
19224;DHT22;9746;47.180;9.776;2022-08-21T17:14:02;25.60;93.00
19224;DHT22;9746;47.180;9.776;2022-08-21T17:16:30;25.40;93.40
19224;DHT22;9746;47.180;9.776;2022-08-21T17:18:57;25.40;94.00
19224;DHT22;9746;47.180;9.776;2022-08-21T17:21:25;25.40;93.90
19224;DHT22;9746;47.180;9.776;2022-08-21T17:23:52;25.40;94.60
19224;DHT22;9746;47.180;9.776;2022-08-21T17:26:20;25.50;94.10
19224;DHT22;9746;47.180;9.776;2022-08-21T17:28:49;25.40;94.40
19224;DHT22;9746;47.180;9.776;2022-08-21T17:31:16;25.30;94.50
19224;DHT22;9746;47.180;9.776;2022-08-21T17:33:46;25.20;94.60
19224;DHT22;9746;47.180;9.776;2022-08-21T17:36:16;25.10;94.60
19224;DHT22;9746;47.180;9.776;2022-08-21T17:38:44;25.00;95.20
19224;DHT22;9746;47.180;9.776;2022-08-21T17:41:12;24.90;95.00
19224;DHT22;9746;47.180;9.776;2022-08-21T17:43:41;24.80;94.70
19224;DHT22;9746;47.180;9.776;2022-08-21T17:46:14;24.80;95.00
19224;DHT22;9746;47.180;9.776;2022-08-21T17:48:43;24.80;95.60
19224;DHT22;9746;47.180;9.776;2022-08-21T17:51:10;24.80;96.10
19224;DHT22;9746;47.180;9.776;2022-08-21T17:53:38;24.80;96.80
19224;DHT22;9746;47.180;9.776;2022-08-21T17:56:06;24.70;97.40
19224;DHT22;9746;47.180;9.776;2022-08-21T17:58:33;24.60;97.70
19224;DHT22;9746;47.180;9.776;2022-08-21T18:01:02;24.40;98.30
19224;DHT22;9746;47.180;9.776;2022-08-21T18:03:32;24.20;98.50
19224;DHT22;9746;47.180;9.776;2022-08-21T18:06:01;24.10;99.30
19224;DHT22;9746;47.180;9.776;2022-08-21T18:08:29;23.80;99.50
19224;DHT22;9746;47.180;9.776;2022-08-21T18:10:58;23.70;99.90
19224;DHT22;9746;47.180;9.776;2022-08-21T18:13:28;23.50;99.90
19224;DHT22;9746;47.180;9.776;2022-08-21T18:15:57;23.30;99.90
19224;DHT22;9746;47.180;9.776;2022-08-21T18:18:26;23.30;99.90
19224;DHT22;9746;47.180;9.776;2022-08-21T18:20:56;23.10;99.90
19224;DHT22;9746;47.180;9.776;2022-08-21T18:23:24;23.00;99.90
19224;DHT22;9746;47.180;9.776;2022-08-21T18:25:54;22.80;99.90
19224;DHT22;9746;47.180;9.776;2022-08-21T18:28:24;22.70;99.90
19224;DHT22;9746;47.180;9.776;2022-08-21T18:30:53;22.60;99.90
19224;DHT22;9746;47.180;9.776;2022-08-21T18:33:21;22.30;99.90
19224;DHT22;9746;47.180;9.776;2022-08-21T18:35:48;22.20;99.90
19224;DHT22;9746;47.180;9.776;2022-08-21T18:38:17;22.00;99.90
19224;DHT22;9746;47.180;9.776;2022-08-21T18:40:49;21.80;99.90
19224;DHT22;9746;47.180;9.776;2022-08-21T18:43:18;21.70;99.90
19224;DHT22;9746;47.180;9.776;2022-08-21T18:45:46;21.60;99.90
19224;DHT22;9746;47.180;9.776;2022-08-21T18:48:14;21.50;99.90
19224;DHT22;9746;47.180;9.776;2022-08-21T18:50:44;21.50;99.90
19224;DHT22;9746;47.180;9.776;2022-08-21T18:53:13;21.40;99.90
19224;DHT22;9746;47.180;9.776;2022-08-21T18:55:43;21.20;99.90
19224;DHT22;9746;47.180;9.776;2022-08-21T18:58:11;21.10;99.90
19224;DHT22;9746;47.180;9.776;2022-08-21T19:00:42;20.80;99.90
19224;DHT22;9746;47.180;9.776;2022-08-21T19:03:13;20.60;99.90
19224;DHT22;9746;47.180;9.776;2022-08-21T19:05:41;20.20;99.90
19224;DHT22;9746;47.180;9.776;2022-08-21T19:08:10;19.90;99.90
19224;DHT22;9746;47.180;9.776;2022-08-21T19:10:39;19.70;99.90
19224;DHT22;9746;47.180;9.776;2022-08-21T19:13:09;19.70;99.90
19224;DHT22;9746;47.180;9.776;2022-08-21T19:15:38;19.60;99.90
19224;DHT22;9746;47.180;9.776;2022-08-21T19:18:10;19.60;99.90
19224;DHT22;9746;47.180;9.776;2022-08-21T19:20:40;19.60;99.90
19224;DHT22;9746;47.180;9.776;2022-08-21T19:23:09;19.60;99.90
19224;DHT22;9746;47.180;9.776;2022-08-21T19:25:39;19.60;99.90
19224;DHT22;9746;47.180;9.776;2022-08-21T19:28:12;19.60;99.90
19224;DHT22;9746;47.180;9.776;2022-08-21T19:30:45;19.60;99.90
19224;DHT22;9746;47.180;9.776;2022-08-21T19:33:20;19.70;99.90
19224;DHT22;9746;47.180;9.776;2022-08-21T19:35:48;19.70;99.90
19224;DHT22;9746;47.180;9.776;2022-08-21T19:38:15;19.80;99.90
19224;DHT22;9746;47.180;9.776;2022-08-21T19:40:43;19.80;99.90
